createdAt,value
2019-02-19T00:01:04.906Z,54.07
2019-02-19T00:03:45.926Z,49.23
2019-02-19T00:06:16.356Z,51.50
2019-02-19T00:08:52.329Z,56.83
2019-02-19T00:11:23.794Z,58.07
2019-02-19T00:13:58.716Z,55.20
2019-02-19T00:16:38.069Z,53.10
2019-02-19T00:19:09.426Z,56.43
2019-02-19T00:21:41.698Z,52.77
2019-02-19T00:24:18.578Z,50.90
2019-02-19T00:26:53.096Z,49.33
2019-02-19T00:29:24.455Z,50.50
2019-02-19T00:32:01.585Z,50.50
2019-02-19T00:34:32.116Z,50.73
2019-02-19T00:37:05.233Z,55.53
2019-02-19T00:39:38.362Z,54.20
2019-02-19T00:42:11.108Z,56.40
2019-02-19T00:44:40.972Z,45.67
2019-02-19T00:47:12.648Z,47.20
2019-02-19T00:49:46.332Z,53.47
2019-02-19T00:52:19.535Z,51.07
2019-02-19T00:55:01.071Z,54.57
2019-02-19T00:57:35.114Z,63.70
2019-02-19T01:00:07.331Z,57.93
2019-02-19T01:02:37.393Z,65.87
2019-02-19T01:05:12.554Z,66.10
2019-02-19T01:07:53.146Z,74.33
2019-02-19T01:10:24.276Z,64.33
2019-02-19T01:13:00.450Z,62.20
2019-02-19T01:15:34.268Z,56.13
2019-02-19T01:18:07.064Z,62.63
2019-02-19T01:20:39.823Z,68.87
2019-02-19T01:23:15.067Z,65.97
2019-02-19T01:25:51.337Z,68.67
2019-02-19T01:28:29.856Z,67.70
2019-02-19T01:31:04.074Z,59.47
2019-02-19T01:33:37.861Z,58.63
2019-02-19T01:36:13.697Z,65.73
2019-02-19T01:38:51.273Z,60.40
2019-02-19T01:41:28.342Z,49.67
2019-02-19T01:44:03.426Z,49.27
2019-02-19T01:46:45.218Z,41.93
2019-02-19T01:49:17.847Z,38.27
2019-02-19T01:51:52.956Z,41.17
2019-02-19T01:54:28.461Z,44.80
2019-02-19T01:57:08.846Z,40.53
2019-02-19T01:59:44.084Z,42.83
2019-02-19T02:02:15.058Z,39.87
2019-02-19T02:04:46.941Z,41.67
2019-02-19T02:07:19.042Z,40.90
2019-02-19T02:09:53.409Z,42.63
2019-02-19T02:12:26.919Z,42.93
2019-02-19T02:15:16.467Z,42.20
2019-02-19T02:17:52.161Z,49.03
2019-02-19T02:20:26.663Z,54.20
2019-02-19T02:23:08.474Z,53.57
2019-02-19T02:25:44.707Z,52.73
2019-02-19T02:28:17.209Z,51.47
2019-02-19T02:30:51.075Z,43.90
2019-02-19T02:33:24.893Z,47.03
2019-02-19T02:35:57.078Z,49.60
2019-02-19T02:38:29.621Z,44.60
2019-02-19T02:41:07.022Z,47.70
2019-02-19T02:43:39.802Z,45.90
2019-02-19T02:46:15.463Z,47.83
2019-02-19T02:48:50.843Z,45.13
2019-02-19T02:51:31.396Z,44.83
2019-02-19T02:54:04.907Z,46.73
2019-02-19T02:56:38.243Z,42.47
2019-02-19T02:59:15.049Z,41.93
2019-02-19T03:01:45.608Z,43.60
2019-02-19T03:04:17.460Z,41.97
2019-02-19T03:06:49.366Z,41.53
2019-02-19T03:09:20.775Z,44.60
2019-02-19T03:11:51.898Z,42.63
2019-02-19T03:14:21.705Z,43.23
2019-02-19T03:16:53.273Z,42.87
2019-02-19T03:19:26.442Z,40.27
2019-02-19T03:22:14.566Z,40.10
2019-02-19T03:24:48.313Z,41.20
2019-02-19T03:27:21.509Z,39.60
2019-02-19T03:29:58.179Z,38.00
2019-02-19T03:32:35.816Z,40.60
2019-02-19T03:35:12.948Z,38.43
2019-02-19T03:37:47.913Z,40.97
2019-02-19T03:40:21.239Z,39.30
2019-02-19T03:42:54.723Z,41.53
2019-02-19T03:45:28.902Z,39.10
2019-02-19T03:48:03.372Z,39.67
2019-02-19T03:50:41.727Z,38.17
2019-02-19T03:53:15.900Z,37.07
2019-02-19T03:55:48.797Z,40.07
2019-02-19T03:58:19.506Z,38.73
2019-02-19T04:00:52.772Z,40.13
2019-02-19T04:03:25.911Z,39.20
2019-02-19T04:05:56.363Z,35.97
2019-02-19T04:08:29.215Z,36.17
2019-02-19T04:11:06.524Z,35.97
2019-02-19T04:13:37.838Z,36.87
2019-02-19T04:16:10.276Z,37.33
2019-02-19T04:18:42.636Z,39.30
2019-02-19T04:21:16.320Z,36.40
2019-02-19T04:23:51.675Z,36.20
2019-02-19T04:26:25.782Z,37.03
2019-02-19T04:28:59.909Z,34.87
2019-02-19T04:31:39.647Z,35.73
2019-02-19T04:34:24.414Z,38.40
2019-02-19T04:36:50.260Z,35.57
2019-02-19T04:39:29.323Z,31.47
2019-02-19T04:42:01.709Z,37.03
2019-02-19T04:44:34.602Z,35.73
2019-02-19T04:47:28.474Z,37.77
2019-02-19T04:50:14.854Z,33.20
2019-02-19T04:52:53.972Z,33.90
2019-02-19T04:55:26.259Z,34.57
2019-02-19T04:57:56.954Z,29.80
2019-02-19T05:00:29.732Z,32.23
2019-02-19T05:03:02.422Z,31.70
2019-02-19T05:05:39.230Z,30.83
2019-02-19T05:08:11.241Z,32.37
2019-02-19T05:10:51.091Z,39.53
2019-02-19T05:13:23.204Z,36.17
2019-02-19T05:15:52.074Z,36.23
2019-02-19T05:18:26.030Z,36.30
2019-02-19T05:20:58.770Z,35.00
2019-02-19T05:23:31.979Z,29.67
2019-02-19T05:26:04.123Z,26.37
2019-02-19T05:28:36.298Z,19.47
2019-02-19T05:31:32.542Z,18.07
2019-02-19T05:34:14.038Z,17.53
2019-02-19T05:36:44.973Z,16.07
2019-02-19T05:39:26.306Z,14.33
2019-02-19T05:41:59.082Z,16.50
2019-02-19T05:46:05.669Z,24.30
2019-02-19T05:48:38.142Z,27.53
2019-02-19T05:51:16.404Z,28.97
2019-02-19T05:53:52.700Z,36.33
2019-02-19T05:56:27.719Z,34.47
2019-02-19T05:59:03.609Z,30.93
2019-02-19T06:01:45.664Z,30.60
2019-02-19T06:04:23.722Z,26.97
2019-02-19T06:06:56.079Z,27.77
2019-02-19T06:09:28.928Z,25.27
2019-02-19T06:11:59.899Z,29.50
2019-02-19T06:14:41.618Z,28.57
2019-02-19T06:17:17.839Z,26.40
2019-02-19T06:20:11.781Z,28.63
2019-02-19T06:23:04.935Z,31.97
2019-02-19T06:25:36.922Z,29.97
2019-02-19T06:31:08.366Z,29.17
2019-02-19T06:33:57.307Z,30.50
2019-02-19T06:36:33.998Z,28.70
2019-02-19T06:39:14.571Z,33.10
2019-02-19T06:41:50.717Z,37.80
2019-02-19T06:44:31.103Z,31.87
2019-02-19T06:53:04.815Z,40.90
2019-02-19T06:55:44.995Z,41.60
2019-02-19T06:58:20.466Z,42.23
2019-02-19T07:01:11.647Z,47.00
2019-02-19T07:03:48.303Z,43.70
2019-02-19T07:06:31.774Z,43.00
2019-02-19T07:09:11.379Z,44.53
2019-02-19T07:17:50.275Z,40.50
2019-02-19T07:20:41.470Z,39.87
2019-02-19T07:23:35.540Z,38.07
2019-02-19T07:26:13.600Z,36.10
2019-02-19T07:28:52.405Z,34.57
2019-02-19T07:31:32.467Z,30.50
2019-02-19T07:34:06.521Z,38.73
2019-02-19T07:36:42.493Z,38.80
2019-02-19T07:42:10.825Z,48.23
2019-02-19T07:45:17.938Z,46.03
2019-02-19T07:47:49.477Z,46.50
2019-02-19T07:50:26.075Z,47.87
2019-02-19T07:53:33.701Z,49.63
2019-02-19T08:12:06.784Z,34.67
2019-02-19T08:14:59.903Z,40.23
2019-02-19T08:21:08.279Z,40.20
2019-02-19T08:26:38.595Z,39.63
2019-02-19T08:29:15.837Z,35.53
2019-02-19T08:35:17.957Z,32.97
2019-02-19T08:38:09.368Z,28.80
2019-02-19T08:49:19.723Z,29.37
2019-02-19T08:52:15.563Z,30.90
2019-02-19T08:54:45.169Z,29.10
2019-02-19T09:00:51.425Z,32.70
2019-02-19T09:03:41.084Z,32.63
2019-02-19T09:06:21.131Z,30.23
2019-02-19T09:08:57.983Z,34.00
2019-02-19T09:11:35.079Z,34.23
2019-02-19T09:14:38.775Z,33.37
2019-02-19T09:17:18.487Z,35.60
2019-02-19T09:19:52.735Z,34.47
2019-02-19T09:25:18.112Z,32.73
2019-02-19T09:27:54.542Z,31.63
2019-02-19T09:30:42.881Z,33.80
2019-02-19T09:33:26.890Z,32.37
2019-02-19T09:39:02.087Z,30.77
2019-02-19T09:44:55.328Z,29.97
2019-02-19T09:47:32.675Z,31.40
2019-02-19T09:52:59.938Z,30.40
2019-02-19T09:55:36.094Z,27.57
2019-02-19T09:58:10.469Z,28.97
2019-02-19T10:00:52.585Z,29.57
2019-02-19T10:03:31.395Z,29.50
2019-02-19T10:06:11.249Z,27.93
2019-02-19T10:09:03.330Z,28.10
2019-02-19T10:23:54.430Z,25.67
2019-02-19T10:26:37.908Z,28.10
2019-02-19T10:29:17.087Z,24.90
2019-02-19T10:32:05.936Z,28.50
2019-02-19T10:38:07.900Z,26.73
2019-02-19T10:40:49.085Z,23.57
2019-02-19T10:43:23.501Z,22.53
2019-02-19T10:45:58.022Z,24.33
2019-02-19T10:48:32.509Z,24.23
2019-02-19T10:51:05.750Z,24.07
2019-02-19T10:53:49.549Z,23.77
2019-02-19T10:56:23.277Z,22.83
2019-02-19T10:59:17.351Z,25.93
2019-02-19T11:01:55.131Z,23.83
2019-02-19T11:04:30.063Z,25.73
2019-02-19T11:07:09.539Z,25.17
2019-02-19T11:09:53.701Z,25.07
2019-02-19T11:12:27.653Z,24.37
2019-02-19T11:15:01.121Z,22.67
2019-02-19T11:17:39.782Z,23.33
2019-02-19T11:20:17.111Z,23.73
2019-02-19T11:22:56.859Z,24.87
2019-02-19T11:25:28.616Z,23.93
2019-02-19T11:28:04.765Z,24.03
2019-02-19T11:30:45.176Z,24.80
2019-02-19T11:33:20.014Z,25.93
2019-02-19T11:35:54.877Z,23.60
2019-02-19T11:38:29.051Z,24.90
2019-02-19T11:41:06.507Z,25.47
2019-02-19T11:43:45.553Z,23.70
2019-02-19T11:46:22.874Z,25.43
2019-02-19T11:48:59.901Z,24.33
2019-02-19T11:51:43.985Z,25.03
2019-02-19T11:57:16.393Z,25.83
2019-02-19T11:59:56.129Z,24.10
2019-02-19T12:02:38.085Z,23.70
2019-02-19T12:05:18.048Z,21.67
2019-02-19T12:07:56.729Z,23.90
2019-02-19T12:10:36.445Z,24.03
2019-02-19T12:13:12.068Z,22.80
2019-02-19T12:15:45.051Z,23.90
2019-02-19T12:18:16.476Z,21.87
2019-02-19T12:20:46.818Z,23.70
2019-02-19T12:23:27.625Z,23.67
2019-02-19T12:25:58.169Z,20.67
2019-02-19T12:28:42.101Z,24.03
2019-02-19T12:31:12.423Z,23.13
2019-02-19T12:33:53.095Z,24.17
2019-02-19T12:36:28.060Z,22.60
2019-02-19T12:39:19.515Z,21.23
2019-02-19T12:41:57.166Z,20.27
2019-02-19T12:44:30.869Z,21.30
2019-02-19T12:47:20.448Z,23.90
2019-02-19T12:50:05.931Z,21.40
2019-02-19T12:52:44.611Z,21.97
2019-02-19T12:55:18.189Z,24.60
2019-02-19T12:57:55.681Z,25.77
2019-02-19T13:00:49.027Z,24.60
2019-02-19T13:03:23.515Z,23.97
2019-02-19T13:05:58.190Z,24.23
2019-02-19T13:08:48.049Z,23.70
2019-02-19T13:15:08.932Z,19.63
2019-02-19T13:17:55.618Z,21.90
2019-02-19T13:21:37.175Z,18.43
2019-02-19T13:26:15.511Z,14.80
2019-02-19T13:28:50.707Z,13.27
2019-02-19T13:34:22.790Z,13.90
2019-02-19T13:37:19.052Z,13.40
2019-02-19T13:40:01.293Z,12.30
2019-02-19T13:42:36.485Z,12.63
2019-02-19T13:45:22.017Z,11.53
2019-02-19T13:48:05.851Z,11.63
2019-02-19T13:50:43.465Z,11.53
2019-02-19T13:53:39.822Z,10.67
2019-02-19T13:56:16.674Z,10.80
2019-02-19T13:58:51.070Z,10.17
2019-02-19T14:01:28.952Z,10.07
2019-02-19T14:04:05.290Z,8.07
2019-02-19T14:06:38.858Z,7.63
2019-02-19T14:09:17.417Z,8.43
2019-02-19T14:11:53.868Z,7.77
2019-02-19T14:14:32.540Z,9.50
2019-02-19T14:17:06.342Z,8.90
2019-02-19T14:19:43.812Z,9.63
2019-02-19T14:22:23.789Z,8.03
2019-02-19T14:25:04.448Z,9.33
2019-02-19T14:27:54.831Z,8.93
2019-02-19T14:33:29.992Z,9.63
2019-02-19T14:36:14.256Z,8.47
2019-02-19T14:38:57.110Z,8.67
2019-02-19T14:41:35.050Z,8.70
2019-02-19T14:49:52.141Z,7.73
2019-02-19T14:52:30.400Z,8.50
2019-02-19T14:55:23.228Z,8.07
2019-02-19T14:57:56.695Z,7.80
2019-02-19T15:00:49.098Z,8.07
2019-02-19T15:03:25.239Z,7.70
2019-02-19T15:06:08.963Z,8.40
2019-02-19T15:08:59.489Z,7.60
2019-02-19T15:11:49.750Z,8.77
2019-02-19T15:14:35.681Z,8.27
2019-02-19T15:17:22.874Z,8.63
2019-02-19T15:20:12.498Z,8.33
2019-02-19T15:22:55.679Z,8.83
2019-02-19T15:25:37.290Z,7.23
2019-02-19T15:28:32.891Z,9.20
2019-02-19T15:31:06.860Z,10.07
2019-02-19T15:33:46.466Z,10.27
2019-02-19T15:36:37.460Z,9.93
2019-02-19T15:39:19.214Z,10.73
2019-02-19T15:42:02.679Z,10.07
2019-02-19T15:44:55.107Z,10.97
2019-02-19T15:47:30.927Z,12.13
2019-02-19T15:50:22.298Z,11.73
2019-02-19T15:53:02.411Z,12.00
2019-02-19T15:55:37.753Z,12.80
2019-02-19T15:58:31.867Z,12.07
2019-02-19T16:01:33.791Z,12.50
2019-02-19T16:04:17.242Z,12.23
2019-02-19T16:06:58.760Z,12.07
2019-02-19T16:09:34.309Z,12.03
2019-02-19T16:14:16.238Z,15.43
2019-02-19T16:15:42.018Z,15.03
2019-02-19T16:18:20.716Z,12.63
2019-02-19T16:21:12.232Z,14.33
2019-02-19T16:24:00.664Z,13.07
2019-02-19T16:26:41.455Z,14.43
2019-02-19T16:32:24.618Z,13.70
2019-02-19T16:47:05.917Z,16.07
2019-02-19T16:49:47.147Z,15.37
2019-02-19T16:52:37.951Z,14.70
2019-02-19T16:55:23.443Z,15.13
2019-02-19T16:58:17.917Z,13.77
2019-02-19T17:00:58.423Z,16.07
2019-02-19T17:03:37.309Z,13.83
2019-02-19T17:06:19.876Z,15.23
2019-02-19T17:18:01.601Z,13.67
2019-02-19T17:20:57.099Z,15.47
2019-02-19T17:23:29.345Z,13.93
2019-02-19T17:29:06.473Z,13.60
2019-02-19T17:32:05.148Z,14.73
2019-02-19T17:34:44.776Z,13.83
2019-02-19T17:37:20.498Z,13.63
2019-02-19T17:39:56.051Z,14.00
2019-02-19T17:42:51.625Z,14.60
2019-02-19T17:45:50.754Z,13.67
2019-02-19T17:48:44.401Z,13.03
2019-02-19T17:51:21.050Z,13.43
2019-02-19T17:57:12.846Z,12.83
2019-02-19T18:00:21.629Z,14.70
2019-02-19T18:03:10.308Z,13.80
2019-02-19T18:06:03.234Z,15.27
2019-02-19T18:08:53.459Z,14.80
2019-02-19T18:12:05.576Z,14.80
2019-02-19T18:15:03.509Z,13.43
2019-02-19T18:17:47.839Z,13.70
2019-02-19T18:23:40.470Z,15.47
2019-02-19T18:32:30.226Z,15.43
2019-02-19T18:38:34.287Z,16.17
2019-02-19T18:41:10.727Z,18.33
2019-02-19T18:44:08.760Z,18.33
2019-02-19T18:46:54.168Z,18.33
2019-02-19T18:52:29.831Z,19.17
2019-02-19T18:55:16.177Z,17.40
2019-02-19T18:58:00.217Z,20.37
2019-02-19T19:00:45.794Z,18.47
2019-02-19T19:03:30.561Z,17.63
2019-02-19T19:06:29.537Z,17.17
2019-02-19T19:12:03.577Z,14.17
2019-02-19T19:14:44.370Z,14.57
2019-02-19T19:17:19.929Z,13.70
2019-02-19T19:19:57.613Z,14.53
2019-02-19T19:22:47.080Z,15.07
2019-02-19T19:25:20.564Z,17.50
2019-02-19T19:27:55.557Z,17.10
2019-02-19T19:30:38.056Z,17.17
2019-02-19T19:36:09.177Z,15.80
2019-02-19T19:38:48.736Z,14.67
2019-02-19T19:41:28.116Z,14.57
2019-02-19T19:44:01.570Z,13.30
2019-02-19T19:46:34.250Z,12.20
2019-02-19T19:49:07.780Z,12.00
2019-02-19T19:51:50.994Z,11.87
2019-02-19T19:57:23.744Z,11.53
2019-02-19T20:00:04.723Z,12.10
2019-02-19T20:02:48.725Z,14.13
2019-02-19T20:05:29.307Z,12.30
2019-02-19T20:08:09.076Z,10.43
2019-02-19T20:10:44.925Z,10.40
2019-02-19T20:16:16.764Z,9.37
2019-02-19T20:22:05.908Z,7.33
2019-02-19T20:25:01.737Z,7.73
2019-02-19T20:31:31.232Z,6.83
2019-02-19T20:34:10.993Z,8.47
2019-02-19T20:37:07.008Z,8.47
2019-02-19T20:39:44.131Z,9.13
2019-02-19T20:42:32.833Z,8.73
2019-02-19T20:45:04.097Z,7.17
2019-02-19T20:47:40.435Z,8.00
2019-02-19T20:56:07.157Z,9.13
2019-02-19T21:01:47.480Z,8.67
2019-02-19T21:04:37.940Z,8.87
2019-02-19T21:07:42.065Z,7.30
2019-02-19T21:40:49.491Z,6.97
2019-02-19T22:32:05.458Z,4.73
2019-02-19T22:34:44.021Z,4.47
2019-02-19T22:49:46.164Z,4.37
2019-02-19T22:52:31.057Z,4.73
2019-02-19T22:55:20.644Z,4.83
2019-02-19T23:01:06.360Z,4.30
2019-02-19T23:03:56.974Z,3.80
2019-02-19T23:06:38.768Z,3.80
2019-02-19T23:09:25.786Z,3.43
2019-02-19T23:12:20.154Z,3.40
2019-02-19T23:15:05.594Z,2.90
2019-02-19T23:17:44.720Z,2.73
2019-02-19T23:20:21.109Z,3.37
2019-02-19T23:23:06.954Z,3.40
2019-02-19T23:25:49.845Z,3.20
2019-02-19T23:28:35.585Z,2.90
2019-02-19T23:31:23.409Z,3.20
2019-02-19T23:34:04.718Z,2.87
2019-02-19T23:43:12.015Z,3.77
2019-02-19T23:45:35.756Z,3.70
2019-02-19T23:48:11.309Z,3.20
2019-02-19T23:50:51.372Z,3.03
2019-02-19T23:53:23.139Z,3.17
2019-02-19T23:55:59.171Z,3.33
2019-02-19T23:58:30.903Z,3.13
